sensor_id;sensor_type;location;lat;lon;timestamp;pressure;altitude;pressure_sealevel;temperature;humidity
71559;BME280;59382;43.852;25.952;2023-03-13T00:01:44;101681.63;;;7.80;49.37
71559;BME280;59382;43.852;25.952;2023-03-13T00:04:10;101693.41;;;7.79;49.49
71559;BME280;59382;43.852;25.952;2023-03-13T00:06:36;101704.81;;;7.73;49.40
71559;BME280;59382;43.852;25.952;2023-03-13T00:09:04;101722.59;;;7.74;49.70
71559;BME280;59382;43.852;25.952;2023-03-13T00:11:30;101698.94;;;7.53;49.81
71559;BME280;59382;43.852;25.952;2023-03-13T00:13:58;101717.25;;;7.58;49.51
71559;BME280;59382;43.852;25.952;2023-03-13T00:16:24;101720.44;;;7.61;49.93
71559;BME280;59382;43.852;25.952;2023-03-13T00:18:53;101704.50;;;7.60;49.84
71559;BME280;59382;43.852;25.952;2023-03-13T00:21:21;101702.13;;;7.65;49.65
71559;BME280;59382;43.852;25.952;2023-03-13T00:23:47;101723.31;;;7.84;49.55
71559;BME280;59382;43.852;25.952;2023-03-13T00:26:18;101709.19;;;7.82;49.67
71559;BME280;59382;43.852;25.952;2023-03-13T00:28:44;101724.75;;;7.94;49.21
71559;BME280;59382;43.852;25.952;2023-03-13T00:31:16;101687.69;;;7.74;49.30
71559;BME280;59382;43.852;25.952;2023-03-13T00:33:44;101731.34;;;7.92;49.48
71559;BME280;59382;43.852;25.952;2023-03-13T00:36:15;101711.03;;;7.73;49.53
71559;BME280;59382;43.852;25.952;2023-03-13T00:38:40;101727.34;;;7.72;49.22
71559;BME280;59382;43.852;25.952;2023-03-13T00:41:09;101723.44;;;7.66;49.73
71559;BME280;59382;43.852;25.952;2023-03-13T00:43:38;101722.63;;;7.58;49.69
71559;BME280;59382;43.852;25.952;2023-03-13T00:46:05;101729.66;;;7.59;49.82
71559;BME280;59382;43.852;25.952;2023-03-13T00:48:30;101727.66;;;7.61;50.13
71559;BME280;59382;43.852;25.952;2023-03-13T00:50:57;101729.00;;;7.65;50.14
71559;BME280;59382;43.852;25.952;2023-03-13T00:53:23;101717.91;;;7.52;49.95
71559;BME280;59382;43.852;25.952;2023-03-13T00:55:58;101700.44;;;7.40;50.68
71559;BME280;59382;43.852;25.952;2023-03-13T00:58:26;101731.69;;;7.49;50.34
71559;BME280;59382;43.852;25.952;2023-03-13T01:04:10;101731.63;;;7.25;50.73
71559;BME280;59382;43.852;25.952;2023-03-13T01:06:38;101731.31;;;7.28;50.65
71559;BME280;59382;43.852;25.952;2023-03-13T01:09:09;101753.16;;;7.33;50.83
71559;BME280;59382;43.852;25.952;2023-03-13T01:11:38;101753.97;;;7.25;50.50
71559;BME280;59382;43.852;25.952;2023-03-13T01:14:07;101755.81;;;7.17;50.82
71559;BME280;59382;43.852;25.952;2023-03-13T01:16:35;101749.72;;;7.07;50.73
71559;BME280;59382;43.852;25.952;2023-03-13T01:19:04;101721.19;;;6.90;50.85
71559;BME280;59382;43.852;25.952;2023-03-13T01:21:30;101748.91;;;7.14;51.01
71559;BME280;59382;43.852;25.952;2023-03-13T01:23:55;101758.50;;;7.17;51.15
71559;BME280;59382;43.852;25.952;2023-03-13T01:26:22;101759.84;;;7.21;50.88
71559;BME280;59382;43.852;25.952;2023-03-13T01:28:48;101747.06;;;7.15;50.85
71559;BME280;59382;43.852;25.952;2023-03-13T01:31:24;101743.03;;;7.19;50.99
71559;BME280;59382;43.852;25.952;2023-03-13T01:33:53;101768.25;;;7.34;51.19
71559;BME280;59382;43.852;25.952;2023-03-13T01:36:20;101751.13;;;7.27;50.92
71559;BME280;59382;43.852;25.952;2023-03-13T01:38:53;101767.41;;;7.41;50.44
71559;BME280;59382;43.852;25.952;2023-03-13T01:41:20;101745.41;;;7.30;50.52
71559;BME280;59382;43.852;25.952;2023-03-13T01:43:46;101762.19;;;7.24;50.55
71559;BME280;59382;43.852;25.952;2023-03-13T01:46:19;101753.09;;;7.09;51.31
71559;BME280;59382;43.852;25.952;2023-03-13T01:48:48;101772.69;;;7.01;50.96
71559;BME280;59382;43.852;25.952;2023-03-13T01:51:21;101759.44;;;7.00;51.69
71559;BME280;59382;43.852;25.952;2023-03-13T01:59:18;101785.16;;;7.26;50.74
71559;BME280;59382;43.852;25.952;2023-03-13T02:01:46;101767.03;;;7.12;50.91
71559;BME280;59382;43.852;25.952;2023-03-13T02:04:13;101772.88;;;7.08;51.14
71559;BME280;59382;43.852;25.952;2023-03-13T02:06:42;101790.34;;;7.12;50.78
71559;BME280;59382;43.852;25.952;2023-03-13T02:09:13;101773.53;;;7.10;50.88
71559;BME280;59382;43.852;25.952;2023-03-13T02:11:56;101778.94;;;7.18;50.77
71559;BME280;59382;43.852;25.952;2023-03-13T02:14:27;101767.19;;;7.11;50.72
71559;BME280;59382;43.852;25.952;2023-03-13T02:16:54;101787.38;;;7.23;50.80
71559;BME280;59382;43.852;25.952;2023-03-13T02:19:40;101799.63;;;7.33;50.48
71559;BME280;59382;43.852;25.952;2023-03-13T02:22:28;101803.50;;;7.39;50.83
71559;BME280;59382;43.852;25.952;2023-03-13T02:25:41;101804.28;;;7.23;50.74
71559;BME280;59382;43.852;25.952;2023-03-13T02:28:31;101804.25;;;7.07;51.09
71559;BME280;59382;43.852;25.952;2023-03-13T02:30:59;101813.25;;;6.90;51.36
71559;BME280;59382;43.852;25.952;2023-03-13T02:33:28;101790.50;;;6.69;51.21
71559;BME280;59382;43.852;25.952;2023-03-13T02:35:55;101818.72;;;6.81;51.36
71559;BME280;59382;43.852;25.952;2023-03-13T02:38:24;101809.66;;;6.74;51.49
71559;BME280;59382;43.852;25.952;2023-03-13T02:40:51;101832.28;;;6.79;51.78
71559;BME280;59382;43.852;25.952;2023-03-13T02:46:20;101819.75;;;6.88;51.40
71559;BME280;59382;43.852;25.952;2023-03-13T02:48:50;101837.91;;;6.94;51.10
71559;BME280;59382;43.852;25.952;2023-03-13T02:53:46;101834.97;;;6.79;50.72
71559;BME280;59382;43.852;25.952;2023-03-13T02:56:14;101830.72;;;6.69;50.94
71559;BME280;59382;43.852;25.952;2023-03-13T02:58:42;101852.41;;;6.75;51.24
71559;BME280;59382;43.852;25.952;2023-03-13T03:01:08;101849.56;;;6.77;51.63
71559;BME280;59382;43.852;25.952;2023-03-13T03:03:35;101862.19;;;6.84;51.42
71559;BME280;59382;43.852;25.952;2023-03-13T03:06:02;101858.16;;;6.88;51.31
71559;BME280;59382;43.852;25.952;2023-03-13T03:08:28;101844.22;;;6.85;51.50
71559;BME280;59382;43.852;25.952;2023-03-13T03:10:54;101863.63;;;6.79;51.27
71559;BME280;59382;43.852;25.952;2023-03-13T03:13:19;101836.41;;;6.66;51.62
71559;BME280;59382;43.852;25.952;2023-03-13T03:15:45;101849.88;;;6.74;51.54
71559;BME280;59382;43.852;25.952;2023-03-13T03:18:10;101850.84;;;6.73;51.19
71559;BME280;59382;43.852;25.952;2023-03-13T03:20:36;101858.19;;;6.63;51.33
71559;BME280;59382;43.852;25.952;2023-03-13T03:23:02;101870.75;;;6.62;51.18
71559;BME280;59382;43.852;25.952;2023-03-13T03:25:27;101883.56;;;6.51;51.71
71559;BME280;59382;43.852;25.952;2023-03-13T03:27:52;101872.28;;;6.39;51.92
71559;BME280;59382;43.852;25.952;2023-03-13T03:30:18;101864.00;;;6.33;51.98
71559;BME280;59382;43.852;25.952;2023-03-13T03:32:44;101892.78;;;6.48;51.90
71559;BME280;59382;43.852;25.952;2023-03-13T03:35:09;101900.03;;;6.56;51.86
71559;BME280;59382;43.852;25.952;2023-03-13T03:37:35;101904.16;;;6.68;51.39
71559;BME280;59382;43.852;25.952;2023-03-13T03:40:00;101906.88;;;6.76;51.03
71559;BME280;59382;43.852;25.952;2023-03-13T03:42:26;101916.34;;;6.88;51.23
71559;BME280;59382;43.852;25.952;2023-03-13T03:44:51;101899.09;;;6.90;50.97
71559;BME280;59382;43.852;25.952;2023-03-13T03:47:17;101914.44;;;7.06;50.40
71559;BME280;59382;43.852;25.952;2023-03-13T03:49:42;101927.59;;;7.17;50.20
71559;BME280;59382;43.852;25.952;2023-03-13T03:52:08;101930.75;;;7.12;50.44
71559;BME280;59382;43.852;25.952;2023-03-13T03:54:34;101931.91;;;7.10;50.62
71559;BME280;59382;43.852;25.952;2023-03-13T03:56:59;101918.44;;;7.02;50.63
71559;BME280;59382;43.852;25.952;2023-03-13T03:59:25;101926.53;;;7.10;50.31
71559;BME280;59382;43.852;25.952;2023-03-13T04:01:50;101890.59;;;6.95;50.45
71559;BME280;59382;43.852;25.952;2023-03-13T04:04:16;101949.09;;;7.25;50.42
71559;BME280;59382;43.852;25.952;2023-03-13T04:06:41;101945.38;;;7.18;50.05
71559;BME280;59382;43.852;25.952;2023-03-13T04:09:07;101953.16;;;7.29;50.18
71559;BME280;59382;43.852;25.952;2023-03-13T04:11:32;101956.19;;;7.34;49.73
71559;BME280;59382;43.852;25.952;2023-03-13T04:13:58;101949.16;;;7.33;49.89
71559;BME280;59382;43.852;25.952;2023-03-13T04:16:23;101955.22;;;7.43;49.67
71559;BME280;59382;43.852;25.952;2023-03-13T04:18:49;101961.28;;;7.45;49.67
71559;BME280;59382;43.852;25.952;2023-03-13T04:21:14;101959.25;;;7.39;49.47
71559;BME280;59382;43.852;25.952;2023-03-13T04:23:40;101965.66;;;7.46;49.54
71559;BME280;59382;43.852;25.952;2023-03-13T04:26:05;101967.69;;;7.44;49.10
71559;BME280;59382;43.852;25.952;2023-03-13T04:28:31;101975.88;;;7.42;49.19
71559;BME280;59382;43.852;25.952;2023-03-13T04:30:56;101963.22;;;7.27;49.61
71559;BME280;59382;43.852;25.952;2023-03-13T04:33:25;101967.31;;;7.13;49.61
71559;BME280;59382;43.852;25.952;2023-03-13T04:35:51;101976.63;;;7.01;49.69
71559;BME280;59382;43.852;25.952;2023-03-13T04:38:16;101985.16;;;6.97;49.63
71559;BME280;59382;43.852;25.952;2023-03-13T04:40:42;102005.59;;;6.90;50.01
71559;BME280;59382;43.852;25.952;2023-03-13T04:43:08;102005.97;;;6.77;49.89
71559;BME280;59382;43.852;25.952;2023-03-13T04:45:34;102014.88;;;6.78;50.19
71559;BME280;59382;43.852;25.952;2023-03-13T04:47:59;101995.19;;;6.69;50.33
71559;BME280;59382;43.852;25.952;2023-03-13T04:50:25;102019.22;;;6.79;49.95
71559;BME280;59382;43.852;25.952;2023-03-13T04:52:50;101988.50;;;6.73;50.38
71559;BME280;59382;43.852;25.952;2023-03-13T04:55:16;102021.38;;;6.93;49.79
71559;BME280;59382;43.852;25.952;2023-03-13T04:57:41;101988.75;;;6.80;49.38
71559;BME280;59382;43.852;25.952;2023-03-13T05:00:08;101997.09;;;6.77;50.04
71559;BME280;59382;43.852;25.952;2023-03-13T05:02:34;102006.81;;;6.78;49.63
71559;BME280;59382;43.852;25.952;2023-03-13T05:05:00;102025.53;;;6.87;50.03
71559;BME280;59382;43.852;25.952;2023-03-13T05:07:26;102023.19;;;6.92;49.67
71559;BME280;59382;43.852;25.952;2023-03-13T05:09:51;102022.00;;;6.87;49.43
71559;BME280;59382;43.852;25.952;2023-03-13T05:12:17;102025.38;;;6.89;50.00
71559;BME280;59382;43.852;25.952;2023-03-13T05:14:42;102012.19;;;6.78;50.00
71559;BME280;59382;43.852;25.952;2023-03-13T05:17:08;102016.31;;;6.90;50.19
71559;BME280;59382;43.852;25.952;2023-03-13T05:19:35;102027.78;;;7.00;49.81
71559;BME280;59382;43.852;25.952;2023-03-13T05:22:00;102029.16;;;7.04;49.40
71559;BME280;59382;43.852;25.952;2023-03-13T05:24:26;102043.50;;;7.12;49.47
71559;BME280;59382;43.852;25.952;2023-03-13T05:26:52;102021.78;;;7.06;49.36
71559;BME280;59382;43.852;25.952;2023-03-13T05:29:20;102034.66;;;7.20;49.22
71559;BME280;59382;43.852;25.952;2023-03-13T05:31:46;102035.06;;;7.33;48.98
71559;BME280;59382;43.852;25.952;2023-03-13T05:34:11;102038.13;;;7.38;48.92
71559;BME280;59382;43.852;25.952;2023-03-13T05:36:37;102029.69;;;7.33;49.13
71559;BME280;59382;43.852;25.952;2023-03-13T05:39:03;102051.59;;;7.46;48.80
71559;BME280;59382;43.852;25.952;2023-03-13T05:41:28;102045.03;;;7.74;48.91
71559;BME280;59382;43.852;25.952;2023-03-13T05:43:54;102030.03;;;8.05;48.75
71559;BME280;59382;43.852;25.952;2023-03-13T05:46:19;102032.53;;;8.72;48.27
71559;BME280;59382;43.852;25.952;2023-03-13T05:48:45;102046.28;;;9.41;47.50
71559;BME280;59382;43.852;25.952;2023-03-13T05:51:11;102034.00;;;9.85;46.80
71559;BME280;59382;43.852;25.952;2023-03-13T05:53:37;102032.06;;;10.41;46.37
71559;BME280;59382;43.852;25.952;2023-03-13T05:56:02;102010.91;;;10.75;45.55
71559;BME280;59382;43.852;25.952;2023-03-13T05:58:28;102049.22;;;11.30;44.97
71559;BME280;59382;43.852;25.952;2023-03-13T06:00:53;102039.47;;;11.58;44.37
71559;BME280;59382;43.852;25.952;2023-03-13T06:03:19;102046.59;;;11.88;44.08
71559;BME280;59382;43.852;25.952;2023-03-13T06:05:44;102017.94;;;12.08;43.69
71559;BME280;59382;43.852;25.952;2023-03-13T06:08:10;102048.09;;;12.62;42.96
71559;BME280;59382;43.852;25.952;2023-03-13T06:10:35;102056.22;;;12.83;42.55
71559;BME280;59382;43.852;25.952;2023-03-13T06:13:01;102053.13;;;13.00;42.69
71559;BME280;59382;43.852;25.952;2023-03-13T06:15:26;102052.34;;;13.06;41.66
71559;BME280;59382;43.852;25.952;2023-03-13T06:17:52;102056.44;;;13.02;41.91
71559;BME280;59382;43.852;25.952;2023-03-13T06:20:17;102054.81;;;13.08;41.98
71559;BME280;59382;43.852;25.952;2023-03-13T06:22:43;102052.44;;;13.19;41.71
71559;BME280;59382;43.852;25.952;2023-03-13T06:25:09;102057.06;;;13.25;41.20
71559;BME280;59382;43.852;25.952;2023-03-13T06:27:35;102050.59;;;13.26;41.06
71559;BME280;59382;43.852;25.952;2023-03-13T06:30:00;102045.38;;;13.25;40.51
71559;BME280;59382;43.852;25.952;2023-03-13T06:32:27;102034.75;;;13.23;40.60
71559;BME280;59382;43.852;25.952;2023-03-13T06:34:52;102031.44;;;13.00;40.27
71559;BME280;59382;43.852;25.952;2023-03-13T06:37:18;102020.44;;;12.87;40.44
71559;BME280;59382;43.852;25.952;2023-03-13T06:39:44;102002.31;;;12.67;40.46
71559;BME280;59382;43.852;25.952;2023-03-13T06:42:09;101994.66;;;12.49;40.43
71559;BME280;59382;43.852;25.952;2023-03-13T06:44:35;102002.47;;;12.59;40.79
71559;BME280;59382;43.852;25.952;2023-03-13T06:47:00;102000.28;;;12.69;40.79
71559;BME280;59382;43.852;25.952;2023-03-13T06:49:26;102002.78;;;12.91;39.87
71559;BME280;59382;43.852;25.952;2023-03-13T06:51:51;102013.34;;;12.86;39.78
71559;BME280;59382;43.852;25.952;2023-03-13T06:54:17;102026.38;;;12.76;39.59
71559;BME280;59382;43.852;25.952;2023-03-13T06:56:42;102025.72;;;12.74;39.54
71559;BME280;59382;43.852;25.952;2023-03-13T06:59:08;102020.19;;;12.82;39.84
71559;BME280;59382;43.852;25.952;2023-03-13T07:01:34;102017.19;;;12.98;39.37
71559;BME280;59382;43.852;25.952;2023-03-13T07:03:59;102037.94;;;13.33;38.97
71559;BME280;59382;43.852;25.952;2023-03-13T07:06:25;102033.09;;;13.29;38.53
71559;BME280;59382;43.852;25.952;2023-03-13T07:08:51;102022.25;;;13.01;38.55
71559;BME280;59382;43.852;25.952;2023-03-13T07:11:17;102031.78;;;12.97;38.64
71559;BME280;59382;43.852;25.952;2023-03-13T07:13:42;102017.91;;;12.86;38.67
71559;BME280;59382;43.852;25.952;2023-03-13T07:16:10;102028.81;;;12.92;39.02
71559;BME280;59382;43.852;25.952;2023-03-13T07:18:37;102024.06;;;12.73;38.80
71559;BME280;59382;43.852;25.952;2023-03-13T07:21:03;102017.22;;;12.77;39.01
71559;BME280;59382;43.852;25.952;2023-03-13T07:23:32;102023.28;;;12.79;39.16
71559;BME280;59382;43.852;25.952;2023-03-13T07:26:03;102021.72;;;12.91;38.67
71559;BME280;59382;43.852;25.952;2023-03-13T07:28:29;102015.16;;;12.79;38.55
71559;BME280;59382;43.852;25.952;2023-03-13T07:33:36;102024.31;;;12.36;39.37
71559;BME280;59382;43.852;25.952;2023-03-13T07:36:02;102038.56;;;12.45;39.27
71559;BME280;59382;43.852;25.952;2023-03-13T07:38:28;102022.97;;;12.47;39.43
71559;BME280;59382;43.852;25.952;2023-03-13T07:40:55;102019.13;;;12.41;39.58
71559;BME280;59382;43.852;25.952;2023-03-13T07:43:21;102034.09;;;12.37;39.27
71559;BME280;59382;43.852;25.952;2023-03-13T07:45:55;102032.03;;;12.39;39.12
71559;BME280;59382;43.852;25.952;2023-03-13T07:48:24;102021.66;;;12.43;39.62
71559;BME280;59382;43.852;25.952;2023-03-13T07:50:50;102036.56;;;12.74;39.24
71559;BME280;59382;43.852;25.952;2023-03-13T07:53:16;102035.00;;;12.86;38.66
71559;BME280;59382;43.852;25.952;2023-03-13T07:58:18;102042.88;;;12.81;39.00
71559;BME280;59382;43.852;25.952;2023-03-13T08:00:43;102034.25;;;12.92;38.85
71559;BME280;59382;43.852;25.952;2023-03-13T08:03:09;102051.72;;;13.11;39.14
71559;BME280;59382;43.852;25.952;2023-03-13T08:05:34;102036.09;;;13.13;39.06
71559;BME280;59382;43.852;25.952;2023-03-13T08:08:00;102040.66;;;13.06;39.11
71559;BME280;59382;43.852;25.952;2023-03-13T08:10:26;102032.06;;;13.02;39.44
71559;BME280;59382;43.852;25.952;2023-03-13T08:12:51;102017.13;;;12.92;39.12
71559;BME280;59382;43.852;25.952;2023-03-13T08:15:17;102035.84;;;13.08;39.63
71559;BME280;59382;43.852;25.952;2023-03-13T08:17:45;102028.72;;;13.00;39.21
71559;BME280;59382;43.852;25.952;2023-03-13T08:20:11;102036.69;;;12.87;39.16
71559;BME280;59382;43.852;25.952;2023-03-13T08:22:37;102038.78;;;12.85;39.39
71559;BME280;59382;43.852;25.952;2023-03-13T08:25:04;102026.38;;;12.97;39.61
71559;BME280;59382;43.852;25.952;2023-03-13T08:27:30;102017.13;;;13.13;38.95
71559;BME280;59382;43.852;25.952;2023-03-13T08:29:55;102033.31;;;13.27;38.97
71559;BME280;59382;43.852;25.952;2023-03-13T08:32:21;102016.63;;;13.30;38.93
71559;BME280;59382;43.852;25.952;2023-03-13T08:34:46;102022.00;;;13.51;39.05
71559;BME280;59382;43.852;25.952;2023-03-13T08:37:15;102019.38;;;13.64;38.71
71559;BME280;59382;43.852;25.952;2023-03-13T08:39:40;102007.63;;;13.51;38.76
71559;BME280;59382;43.852;25.952;2023-03-13T08:42:10;102015.59;;;13.59;38.76
71559;BME280;59382;43.852;25.952;2023-03-13T08:44:38;102027.44;;;13.51;38.46
71559;BME280;59382;43.852;25.952;2023-03-13T08:47:05;102004.06;;;13.23;39.04
71559;BME280;59382;43.852;25.952;2023-03-13T08:49:31;102017.50;;;13.31;39.08
71559;BME280;59382;43.852;25.952;2023-03-13T08:51:57;102008.69;;;13.22;39.00
71559;BME280;59382;43.852;25.952;2023-03-13T08:54:22;102007.75;;;13.15;39.26
71559;BME280;59382;43.852;25.952;2023-03-13T08:56:50;102004.28;;;13.21;39.49
71559;BME280;59382;43.852;25.952;2023-03-13T08:59:15;101994.13;;;13.30;39.10
71559;BME280;59382;43.852;25.952;2023-03-13T09:01:43;101994.56;;;13.33;39.14
71559;BME280;59382;43.852;25.952;2023-03-13T09:04:10;102011.22;;;13.30;39.20
71559;BME280;59382;43.852;25.952;2023-03-13T09:06:37;101991.50;;;13.15;39.11
71559;BME280;59382;43.852;25.952;2023-03-13T09:09:04;101998.38;;;13.11;39.12
71559;BME280;59382;43.852;25.952;2023-03-13T09:11:37;101996.03;;;13.08;38.82
71559;BME280;59382;43.852;25.952;2023-03-13T09:14:05;101978.91;;;13.01;39.52
71559;BME280;59382;43.852;25.952;2023-03-13T09:16:36;101999.16;;;13.33;39.33
71559;BME280;59382;43.852;25.952;2023-03-13T09:19:02;101997.44;;;13.59;38.69
71559;BME280;59382;43.852;25.952;2023-03-13T09:21:31;102004.78;;;13.65;38.57
71559;BME280;59382;43.852;25.952;2023-03-13T09:23:58;101995.75;;;13.58;38.53
71559;BME280;59382;43.852;25.952;2023-03-13T09:26:26;101987.53;;;13.45;38.34
71559;BME280;59382;43.852;25.952;2023-03-13T09:28:52;101988.84;;;13.49;38.50
71559;BME280;59382;43.852;25.952;2023-03-13T09:31:29;101995.09;;;13.50;38.23
71559;BME280;59382;43.852;25.952;2023-03-13T09:33:56;102004.53;;;13.60;38.63
71559;BME280;59382;43.852;25.952;2023-03-13T09:36:26;101996.72;;;13.78;38.36
71559;BME280;59382;43.852;25.952;2023-03-13T09:38:54;101987.75;;;13.84;38.11
71559;BME280;59382;43.852;25.952;2023-03-13T09:41:39;101981.94;;;13.88;37.75
71559;BME280;59382;43.852;25.952;2023-03-13T09:44:24;102009.56;;;14.04;37.68
71559;BME280;59382;43.852;25.952;2023-03-13T09:49:45;101996.22;;;14.16;37.92
71559;BME280;59382;43.852;25.952;2023-03-13T09:52:26;101985.81;;;14.19;37.41
71559;BME280;59382;43.852;25.952;2023-03-13T09:54:58;101980.78;;;14.23;37.70
71559;BME280;59382;43.852;25.952;2023-03-13T09:57:38;101978.28;;;14.15;37.68
71559;BME280;59382;43.852;25.952;2023-03-13T10:00:28;101963.59;;;13.96;37.62
71559;BME280;59382;43.852;25.952;2023-03-13T10:05:37;101973.66;;;14.09;37.89
71559;BME280;59382;43.852;25.952;2023-03-13T10:08:30;101971.59;;;14.17;37.97
71559;BME280;59382;43.852;25.952;2023-03-13T10:14:05;101962.91;;;14.35;37.35
71559;BME280;59382;43.852;25.952;2023-03-13T10:16:50;101953.28;;;14.32;37.39
71559;BME280;59382;43.852;25.952;2023-03-13T10:19:32;101943.19;;;14.13;38.02
71559;BME280;59382;43.852;25.952;2023-03-13T10:22:01;101947.94;;;14.05;37.66
71559;BME280;59382;43.852;25.952;2023-03-13T10:24:46;101947.53;;;14.08;37.66
71559;BME280;59382;43.852;25.952;2023-03-13T10:27:14;101947.78;;;14.13;37.94
71559;BME280;59382;43.852;25.952;2023-03-13T10:29:40;101940.28;;;14.15;37.58
71559;BME280;59382;43.852;25.952;2023-03-13T10:32:07;101947.38;;;14.16;37.59
71559;BME280;59382;43.852;25.952;2023-03-13T10:35:00;101942.75;;;14.10;37.10
71559;BME280;59382;43.852;25.952;2023-03-13T10:37:32;101906.81;;;13.95;37.63
71559;BME280;59382;43.852;25.952;2023-03-13T10:40:22;101930.25;;;14.09;37.29
71559;BME280;59382;43.852;25.952;2023-03-13T10:42:51;101893.25;;;13.95;37.54
71559;BME280;59382;43.852;25.952;2023-03-13T10:45:19;101922.94;;;14.16;37.42
71559;BME280;59382;43.852;25.952;2023-03-13T10:47:54;101923.78;;;14.23;36.67
71559;BME280;59382;43.852;25.952;2023-03-13T10:50:22;101915.03;;;14.21;36.99
71559;BME280;59382;43.852;25.952;2023-03-13T10:52:49;101887.63;;;14.03;37.01
71559;BME280;59382;43.852;25.952;2023-03-13T10:55:17;101898.09;;;14.19;37.04
71559;BME280;59382;43.852;25.952;2023-03-13T10:57:54;101872.59;;;14.07;36.59
71559;BME280;59382;43.852;25.952;2023-03-13T11:00:28;101896.03;;;14.21;36.35
71559;BME280;59382;43.852;25.952;2023-03-13T11:02:54;101888.91;;;14.13;36.71
71559;BME280;59382;43.852;25.952;2023-03-13T11:05:32;101883.47;;;14.07;36.06
71559;BME280;59382;43.852;25.952;2023-03-13T11:08:11;101891.84;;;14.12;36.15
71559;BME280;59382;43.852;25.952;2023-03-13T11:16:09;101886.00;;;14.15;35.98
71559;BME280;59382;43.852;25.952;2023-03-13T11:21:18;101863.44;;;14.14;36.20
71559;BME280;59382;43.852;25.952;2023-03-13T11:23:57;101878.53;;;14.30;35.74
71559;BME280;59382;43.852;25.952;2023-03-13T11:26:34;101873.28;;;14.35;35.93
71559;BME280;59382;43.852;25.952;2023-03-13T11:29:22;101873.50;;;14.33;36.02
71559;BME280;59382;43.852;25.952;2023-03-13T11:31:58;101876.66;;;14.37;35.92
71559;BME280;59382;43.852;25.952;2023-03-13T11:34:43;101850.94;;;14.26;36.13
71559;BME280;59382;43.852;25.952;2023-03-13T11:37:12;101873.09;;;14.43;35.45
71559;BME280;59382;43.852;25.952;2023-03-13T11:39:57;101858.47;;;14.44;35.89
71559;BME280;59382;43.852;25.952;2023-03-13T12:01:25;101809.56;;;14.11;35.58
71559;BME280;59382;43.852;25.952;2023-03-13T12:04:33;101839.63;;;14.23;35.24
71559;BME280;59382;43.852;25.952;2023-03-13T12:07:05;101833.81;;;14.26;35.22
71559;BME280;59382;43.852;25.952;2023-03-13T12:09:48;101821.28;;;14.25;34.64
71559;BME280;59382;43.852;25.952;2023-03-13T12:17:59;101808.78;;;14.24;33.57
71559;BME280;59382;43.852;25.952;2023-03-13T12:20:27;101817.91;;;14.23;34.44
71559;BME280;59382;43.852;25.952;2023-03-13T12:23:17;101807.47;;;14.20;33.79
71559;BME280;59382;43.852;25.952;2023-03-13T12:25:51;101819.63;;;14.24;34.53
71559;BME280;59382;43.852;25.952;2023-03-13T12:37:00;101816.28;;;14.28;33.57
71559;BME280;59382;43.852;25.952;2023-03-13T12:39:36;101804.13;;;14.18;33.72
71559;BME280;59382;43.852;25.952;2023-03-13T12:44:49;101804.13;;;14.18;33.73
71559;BME280;59382;43.852;25.952;2023-03-13T12:55:45;101808.97;;;14.35;33.63
71559;BME280;59382;43.852;25.952;2023-03-13T13:01:03;101802.06;;;14.39;33.70
71559;BME280;59382;43.852;25.952;2023-03-13T13:03:39;101803.72;;;14.47;33.35
71559;BME280;59382;43.852;25.952;2023-03-13T13:06:12;101801.22;;;14.52;33.78
71559;BME280;59382;43.852;25.952;2023-03-13T13:08:44;101784.13;;;14.45;33.82
71559;BME280;59382;43.852;25.952;2023-03-13T13:17:11;101789.34;;;14.40;32.74
71559;BME280;59382;43.852;25.952;2023-03-13T13:25:26;101775.34;;;14.43;32.52
71559;BME280;59382;43.852;25.952;2023-03-13T13:27:52;101774.91;;;14.46;33.17
71559;BME280;59382;43.852;25.952;2023-03-13T13:32:52;101779.09;;;14.42;32.96
71559;BME280;59382;43.852;25.952;2023-03-13T13:35:28;101774.50;;;14.36;32.85
71559;BME280;59382;43.852;25.952;2023-03-13T13:41:04;101758.84;;;14.25;33.03
71559;BME280;59382;43.852;25.952;2023-03-13T13:43:48;101753.63;;;14.23;33.26
71559;BME280;59382;43.852;25.952;2023-03-13T13:51:36;101748.19;;;14.23;32.96
71559;BME280;59382;43.852;25.952;2023-03-13T13:57:06;101740.66;;;14.19;33.11
71559;BME280;59382;43.852;25.952;2023-03-13T13:59:43;101733.34;;;14.13;33.00
71559;BME280;59382;43.852;25.952;2023-03-13T14:02:34;101737.31;;;14.17;32.91
71559;BME280;59382;43.852;25.952;2023-03-13T14:05:04;101742.09;;;14.21;33.07
71559;BME280;59382;43.852;25.952;2023-03-13T14:10:18;101742.94;;;14.22;33.31
71559;BME280;59382;43.852;25.952;2023-03-13T14:12:52;101751.09;;;14.22;32.99
71559;BME280;59382;43.852;25.952;2023-03-13T14:15:21;101746.94;;;14.19;33.08
71559;BME280;59382;43.852;25.952;2023-03-13T14:17:54;101734.81;;;14.09;33.37
71559;BME280;59382;43.852;25.952;2023-03-13T14:20:38;101738.78;;;14.13;33.21
71559;BME280;59382;43.852;25.952;2023-03-13T14:23:07;101737.72;;;14.14;33.06
71559;BME280;59382;43.852;25.952;2023-03-13T14:25:49;101719.38;;;14.03;32.68
71559;BME280;59382;43.852;25.952;2023-03-13T14:28:23;101690.56;;;13.88;32.79
71559;BME280;59382;43.852;25.952;2023-03-13T14:30:51;101729.38;;;14.15;33.25
71559;BME280;59382;43.852;25.952;2023-03-13T14:33:17;101718.53;;;14.09;33.04
71559;BME280;59382;43.852;25.952;2023-03-13T14:35:43;101715.19;;;14.07;33.13
71559;BME280;59382;43.852;25.952;2023-03-13T14:38:18;101732.72;;;14.11;32.53
71559;BME280;59382;43.852;25.952;2023-03-13T14:40:44;101724.38;;;14.06;32.69
71559;BME280;59382;43.852;25.952;2023-03-13T14:43:34;101724.81;;;14.03;32.86
71559;BME280;59382;43.852;25.952;2023-03-13T14:46:34;101706.41;;;13.92;32.75
71559;BME280;59382;43.852;25.952;2023-03-13T14:49:17;101719.38;;;14.03;32.97